createdAt,value
2023-07-29T00:02:06.451Z,98168.03
2023-07-29T00:07:17.495Z,98164.16
2023-07-29T00:12:24.040Z,98160.31
2023-07-29T00:17:29.141Z,98161.00
2023-07-29T00:22:38.690Z,98157.16
2023-07-29T00:27:45.896Z,98146.34
2023-07-29T00:32:53.317Z,98150.59
2023-07-29T00:38:01.390Z,98137.44
2023-07-29T00:43:06.602Z,98142.84
2023-07-29T00:48:16.314Z,98143.25
2023-07-29T00:53:24.162Z,98139.38
2023-07-29T00:58:29.238Z,98133.97
2023-07-29T01:03:36.301Z,98130.09
2023-07-29T01:08:57.874Z,98127.75
2023-07-29T01:14:14.272Z,98124.69
2023-07-29T01:19:38.758Z,98123.91
2023-07-29T01:24:49.144Z,98128.16
2023-07-29T01:29:56.725Z,98125.81
2023-07-29T01:35:09.598Z,98115.75
2023-07-29T01:40:18.061Z,98116.94
2023-07-29T01:45:23.308Z,98113.44
2023-07-29T01:50:28.494Z,98104.56
2023-07-29T01:55:38.776Z,98119.59
2023-07-29T02:00:44.084Z,98109.09
2023-07-29T02:05:49.457Z,98114.91
2023-07-29T02:10:57.134Z,98118.00
2023-07-29T02:16:02.336Z,98122.56
2023-07-29T02:21:07.385Z,98113.63
2023-07-29T02:26:15.102Z,98131.81
2023-07-29T02:31:22.125Z,98127.91
2023-07-29T02:36:27.651Z,98115.06
2023-07-29T02:41:35.367Z,98125.19
2023-07-29T02:46:43.615Z,98130.16
2023-07-29T02:51:48.734Z,98125.13
2023-07-29T02:56:57.639Z,98139.09
2023-07-29T03:02:03.010Z,98132.59
2023-07-29T03:07:08.156Z,98149.81
2023-07-29T03:12:17.100Z,98147.13
2023-07-29T03:17:22.328Z,98157.50
2023-07-29T03:22:28.853Z,98157.19
2023-07-29T03:27:37.817Z,98153.81
2023-07-29T03:32:47.770Z,98154.88
2023-07-29T03:37:54.031Z,98151.06
2023-07-29T03:43:01.871Z,98148.34
2023-07-29T03:48:08.533Z,98146.09
2023-07-29T03:53:13.950Z,98143.75
2023-07-29T03:58:23.975Z,98141.84
2023-07-29T04:03:29.222Z,98138.34
2023-07-29T04:08:35.035Z,98148.81
2023-07-29T04:13:42.758Z,98141.13
2023-07-29T04:18:49.631Z,98133.41
2023-07-29T04:23:55.011Z,98140.06
2023-07-29T04:29:02.709Z,98137.06
2023-07-29T04:34:09.335Z,98140.53
2023-07-29T04:39:15.738Z,98133.16
2023-07-29T04:44:23.573Z,98135.84
2023-07-29T04:49:29.464Z,98136.28
2023-07-29T04:54:34.594Z,98140.09
2023-07-29T04:59:44.689Z,98137.75
2023-07-29T05:04:49.996Z,98129.25
2023-07-29T05:09:57.243Z,98124.22
2023-07-29T05:15:09.304Z,98131.56
2023-07-29T05:20:17.005Z,98126.59
2023-07-29T05:25:24.164Z,98128.53
2023-07-29T05:30:36.600Z,98135.88
2023-07-29T05:35:41.707Z,98123.50
2023-07-29T05:40:47.016Z,98115.34
2023-07-29T05:45:54.739Z,98121.91
2023-07-29T05:51:00.891Z,98109.13
2023-07-29T05:56:05.979Z,98118.34
2023-07-29T06:01:14.070Z,98113.41
2023-07-29T06:06:20.329Z,98099.03
2023-07-29T06:11:25.778Z,98095.38
2023-07-29T06:16:33.732Z,98081.31
2023-07-29T06:21:39.494Z,98080.47
2023-07-29T06:26:44.697Z,98082.97
2023-07-29T06:31:53.015Z,98082.84
2023-07-29T06:36:58.351Z,98103.28
2023-07-29T06:42:03.459Z,98103.59
2023-07-29T06:47:11.806Z,98096.03
2023-07-29T06:52:16.823Z,98098.56
2023-07-29T06:57:22.038Z,98111.38
2023-07-29T07:02:32.314Z,98112.84
2023-07-29T07:07:37.780Z,98106.16
2023-07-29T07:12:42.807Z,98111.63
2023-07-29T07:17:50.623Z,98101.47
2023-07-29T07:22:58.335Z,98106.31
2023-07-29T07:28:04.185Z,98103.56
2023-07-29T07:33:12.805Z,98097.81
2023-07-29T07:38:20.959Z,98086.50
2023-07-29T07:43:26.728Z,98065.88
2023-07-29T07:48:34.689Z,98056.28
2023-07-29T07:53:42.112Z,98044.31
2023-07-29T07:58:47.142Z,98052.56
2023-07-29T08:03:54.924Z,98045.22
2023-07-29T08:09:00.126Z,98031.22
2023-07-29T08:14:07.904Z,98026.94
2023-07-29T08:19:15.529Z,98031.94
2023-07-29T08:24:20.745Z,98024.94
2023-07-29T08:29:25.970Z,98020.31
2023-07-29T08:34:37.005Z,98023.63
2023-07-29T08:39:42.229Z,98022.38
2023-07-29T08:44:48.195Z,98023.00
2023-07-29T08:49:58.164Z,98037.44
2023-07-29T08:55:05.621Z,98028.78
2023-07-29T09:00:13.194Z,98032.09
2023-07-29T09:05:21.073Z,98043.91
2023-07-29T09:10:27.144Z,98037.50
2023-07-29T09:15:37.156Z,98037.00
2023-07-29T09:20:45.553Z,98034.97
2023-07-29T09:25:51.314Z,98030.91
2023-07-29T09:30:56.453Z,98036.63
2023-07-29T09:36:04.317Z,98032.75
2023-07-29T09:41:09.521Z,98023.84
2023-07-29T09:46:14.863Z,98027.97
2023-07-29T09:51:22.513Z,98017.97
2023-07-29T09:56:29.652Z,98023.59
2023-07-29T10:01:36.771Z,98018.22
2023-07-29T10:06:50.703Z,98020.53
2023-07-29T10:11:56.370Z,98007.63
2023-07-29T10:17:01.894Z,98004.06
2023-07-29T10:22:10.689Z,98000.19
2023-07-29T10:27:19.236Z,97990.66
2023-07-29T10:32:26.766Z,98013.56
2023-07-29T10:37:35.076Z,98026.75
2023-07-29T10:42:42.851Z,98028.28
2023-07-29T10:47:47.909Z,98022.41
2023-07-29T10:52:57.217Z,98020.66
2023-07-29T10:58:22.039Z,98009.75
2023-07-29T11:03:30.456Z,98000.28
2023-07-29T11:08:39.278Z,97986.59
2023-07-29T11:13:47.866Z,97984.97
2023-07-29T11:18:53.422Z,97986.19
2023-07-29T11:24:01.368Z,97983.56
2023-07-29T11:29:06.887Z,97972.13
2023-07-29T11:34:12.308Z,97979.53
2023-07-29T11:39:22.557Z,97970.50
2023-07-29T11:44:28.735Z,97977.34
2023-07-29T11:49:36.964Z,97980.06
2023-07-29T11:54:55.923Z,97987.47
2023-07-29T12:00:03.067Z,97986.66
2023-07-29T12:05:16.880Z,97975.09
2023-07-29T12:10:25.201Z,97963.78
2023-07-29T12:15:31.797Z,97967.84
2023-07-29T12:20:39.924Z,97957.28
2023-07-29T12:25:48.013Z,97958.63
2023-07-29T12:30:57.603Z,97944.44
2023-07-29T12:36:04.092Z,97958.06
2023-07-29T12:41:11.908Z,97950.72
2023-07-29T12:46:17.322Z,97936.78
2023-07-29T12:51:22.392Z,97928.50
2023-07-29T12:56:31.297Z,97931.00
2023-07-29T13:01:38.822Z,97923.34
2023-07-29T13:06:44.059Z,97928.38
2023-07-29T13:11:51.773Z,97913.50
2023-07-29T13:16:57.050Z,97900.03
2023-07-29T13:22:03.656Z,97902.81
2023-07-29T13:27:11.619Z,97902.97
2023-07-29T13:32:17.898Z,97912.69
2023-07-29T13:37:25.206Z,97919.09
2023-07-29T13:42:33.012Z,97904.25
2023-07-29T13:47:38.279Z,97911.25
2023-07-29T13:52:44.472Z,97905.59
2023-07-29T13:57:52.057Z,97895.56
2023-07-29T14:02:57.194Z,97895.00
2023-07-29T14:08:02.317Z,97882.16
2023-07-29T14:13:12.491Z,97889.28
2023-07-29T14:18:18.020Z,97895.00
2023-07-29T14:23:23.041Z,97898.19
2023-07-29T14:28:31.489Z,97890.81
2023-07-29T14:33:36.681Z,97892.78
2023-07-29T14:38:41.720Z,97874.63
2023-07-29T14:43:51.671Z,97866.25
2023-07-29T14:48:56.697Z,97858.63
2023-07-29T14:54:01.785Z,97877.09
2023-07-29T14:59:09.528Z,97861.53
2023-07-29T15:04:14.666Z,97873.19
2023-07-29T15:09:19.666Z,97864.97
2023-07-29T15:14:27.523Z,97874.41
2023-07-29T15:19:33.967Z,97867.34
2023-07-29T15:24:40.382Z,97865.56
2023-07-29T15:29:50.507Z,97858.50
2023-07-29T15:34:55.895Z,97866.50
2023-07-29T15:40:00.972Z,97863.06
2023-07-29T15:45:09.748Z,97862.13
2023-07-29T15:50:14.880Z,97867.75
2023-07-29T15:55:21.036Z,97866.59
2023-07-29T16:00:30.350Z,97865.16
2023-07-29T16:05:35.506Z,97867.38
2023-07-29T16:10:40.714Z,97876.66
2023-07-29T16:15:48.412Z,97887.38
2023-07-29T16:20:54.442Z,97885.09
2023-07-29T16:26:02.025Z,97902.31
2023-07-29T16:31:09.759Z,97904.41
2023-07-29T16:36:16.793Z,97911.34
2023-07-29T16:41:54.207Z,97953.78
2023-07-29T16:46:53.110Z,98043.38
2023-07-29T16:51:58.237Z,98094.84
2023-07-29T16:57:03.525Z,98089.03
2023-07-29T17:02:11.454Z,98107.84
2023-07-29T17:07:17.866Z,98090.75
2023-07-29T17:12:22.986Z,98096.38
2023-07-29T17:17:30.653Z,98078.19
2023-07-29T17:22:38.886Z,98095.34
2023-07-29T17:27:46.012Z,98057.22
2023-07-29T17:32:55.165Z,98052.78
2023-07-29T17:38:00.935Z,98044.88
2023-07-29T17:43:07.012Z,98065.34
2023-07-29T17:48:14.914Z,98060.44
2023-07-29T17:53:21.253Z,98080.44
2023-07-29T17:58:26.415Z,98073.66
2023-07-29T18:03:34.565Z,98070.53
2023-07-29T18:08:42.943Z,98069.00
2023-07-29T18:13:55.780Z,98083.69
2023-07-29T18:19:05.395Z,98083.66
2023-07-29T18:24:10.429Z,98088.88
2023-07-29T18:29:15.942Z,98078.78
2023-07-29T18:34:27.630Z,98091.53
2023-07-29T18:39:35.580Z,98094.94
2023-07-29T18:44:48.502Z,98099.50
2023-07-29T18:50:00.424Z,98078.34
2023-07-29T18:55:07.606Z,98069.31
2023-07-29T19:00:13.962Z,98077.91
2023-07-29T19:05:21.776Z,98078.19
2023-07-29T19:10:26.981Z,98071.91
2023-07-29T19:15:33.149Z,98080.16
2023-07-29T19:20:41.339Z,98087.81
2023-07-29T19:25:49.157Z,98078.72
2023-07-29T19:30:57.234Z,98071.41
2023-07-29T19:36:06.169Z,98088.63
2023-07-29T19:41:11.333Z,98087.75
2023-07-29T19:51:29.780Z,98100.72
2023-07-29T19:56:36.921Z,98104.50
2023-07-29T20:01:42.171Z,98093.97
2023-07-29T20:06:56.224Z,98121.50
2023-07-29T20:12:01.313Z,98120.22
2023-07-29T20:17:06.695Z,98124.03
2023-07-29T20:22:14.316Z,98130.97
2023-07-29T20:27:21.201Z,98133.59
2023-07-29T20:32:26.467Z,98136.03
2023-07-29T20:37:34.222Z,98127.91
2023-07-29T20:42:39.291Z,98134.41
2023-07-29T20:47:46.634Z,98141.13
2023-07-29T20:52:54.458Z,98145.97
2023-07-29T20:57:59.566Z,98156.31
2023-07-29T21:03:04.746Z,98158.16
2023-07-29T21:08:12.417Z,98157.78
2023-07-29T21:13:17.404Z,98157.72
2023-07-29T21:18:22.866Z,98157.28
2023-07-29T21:23:30.897Z,98153.31
2023-07-29T21:28:36.325Z,98157.75
2023-07-29T21:33:41.545Z,98163.19
2023-07-29T21:38:49.136Z,98159.31
2023-07-29T21:43:54.465Z,98157.53
2023-07-29T21:48:59.545Z,98146.03
2023-07-29T21:54:07.493Z,98151.97
2023-07-29T21:59:12.484Z,98152.00
2023-07-29T22:04:17.527Z,98145.22
2023-07-29T22:09:25.245Z,98148.38
2023-07-29T22:14:30.321Z,98141.16
2023-07-29T22:19:35.366Z,98151.97
2023-07-29T22:24:43.430Z,98145.59
2023-07-29T22:29:48.454Z,98159.59
2023-07-29T22:34:53.496Z,98160.81
2023-07-29T22:40:01.150Z,98163.44
2023-07-29T22:45:06.209Z,98164.63
2023-07-29T22:50:12.272Z,98162.41
2023-07-29T22:55:20.250Z,98164.41
2023-07-29T23:00:25.279Z,98168.38
2023-07-29T23:05:30.301Z,98172.63
2023-07-29T23:10:38.953Z,98180.66
2023-07-29T23:15:47.553Z,98180.28
2023-07-29T23:20:53.916Z,98180.56
2023-07-29T23:26:01.557Z,98178.84
2023-07-29T23:31:06.614Z,98186.78
2023-07-29T23:36:12.013Z,98177.69
2023-07-29T23:41:19.614Z,98182.94
2023-07-29T23:46:24.667Z,98183.75
2023-07-29T23:51:29.680Z,98180.53
2023-07-29T23:56:40.164Z,98188.03
